Time;durP1;ratioP1;P1;durP2;ratioP2;P2;SDS_P1;SDS_P2;PMS_P1;PMS_P2;Temp;Humidity;BMP_temperature;BMP_pressure;BME280_temperature;BME280_humidity;BME280_pressure;Samples;Min_cycle;Max_cycle;Signal;HPM_P1;HPM_P2
2021/12/17 00:01:00;;;;;;;31.80;19.80;;;4.30;81.50;;;;;;4995169;28;20034;-68
2021/12/17 00:03:37;;;;;;;36.50;21.23;;;4.30;81.60;;;;;;4995246;28;20030;-68
2021/12/17 00:06:13;;;;;;;35.20;20.33;;;4.20;81.50;;;;;;4995211;28;20023;-68
2021/12/17 00:08:42;;;;;;;36.83;21.43;;;4.30;81.30;;;;;;4995052;28;20397;-68
2021/12/17 00:11:08;;;;;;;32.80;21.07;;;4.30;81.20;;;;;;4995038;28;20099;-68
2021/12/17 00:13:34;;;;;;;36.90;20.93;;;4.20;81.70;;;;;;4994937;28;20503;-68
2021/12/17 00:16:01;;;;;;;30.83;20.07;;;4.10;81.90;;;;;;4994532;28;20033;-68
2021/12/17 00:18:49;;;;;;;31.07;19.43;;;4.10;81.90;;;;;;4977423;28;20368;-68
2021/12/17 00:43:56;;;;;;;35.00;18.33;;;4.00;83.50;;;;;;4994361;28;20037;-68
2021/12/17 00:48:47;;;;;;;29.60;17.40;;;3.70;84.30;;;;;;4994672;28;20104;-68
2021/12/17 00:54:09;;;;;;;27.23;17.43;;;3.60;85.70;;;;;;4994218;28;20081;-68
2021/12/17 00:56:35;;;;;;;29.40;17.43;;;3.60;85.10;;;;;;4994195;28;20100;-68
2021/12/17 00:59:01;;;;;;;26.73;17.37;;;3.60;85.10;;;;;;4994114;28;20327;-69
2021/12/17 01:01:27;;;;;;;27.17;17.03;;;3.60;85.70;;;;;;4994098;28;20022;-68
2021/12/17 01:03:55;;;;;;;27.67;17.50;;;3.50;85.00;;;;;;4994085;28;20023;-68
2021/12/17 01:06:21;;;;;;;28.87;17.43;;;3.40;84.80;;;;;;4993990;28;20030;-68
2021/12/17 01:08:48;;;;;;;28.03;16.73;;;3.40;84.80;;;;;;4993840;28;20594;-68
2021/12/17 01:11:14;;;;;;;25.07;16.17;;;3.60;84.40;;;;;;4993790;28;20094;-68
2021/12/17 01:13:41;;;;;;;27.53;16.30;;;3.70;84.60;;;;;;4993828;28;20062;-68
2021/12/17 01:16:08;;;;;;;27.33;17.50;;;3.60;84.60;;;;;;4993873;28;20137;-68
2021/12/17 01:19:07;;;;;;;25.97;16.87;;;3.70;84.20;;;;;;4993941;28;20098;-68
2021/12/17 01:24:11;;;;;;;30.60;16.80;;;3.70;84.60;;;;;;4993364;28;20122;-68
2021/12/17 01:43:04;;;;;;;29.97;15.90;;;3.90;82.30;;;;;;4993800;28;20061;-67
2021/12/17 01:45:35;;;;;;;24.20;14.13;;;4.00;81.50;;;;;;4993836;28;20031;-68
2021/12/17 01:48:06;;;;;;;25.27;15.27;;;4.10;81.30;;;;;;4993368;28;20498;-68
2021/12/17 01:56:17;;;;;;;17.83;11.40;;;3.80;82.00;;;;;;4993873;28;20033;-67
2021/12/17 02:01:29;;;;;;;13.50;8.07;;;3.50;83.30;;;;;;4990676;28;20040;-68
2021/12/17 02:03:56;;;;;;;12.53;7.20;;;3.50;83.20;;;;;;4991097;28;20030;-68
2021/12/17 02:06:23;;;;;;;12.93;7.83;;;3.70;82.70;;;;;;4993163;28;20054;-68
2021/12/17 02:08:50;;;;;;;10.17;6.97;;;3.80;82.30;;;;;;4993175;28;20029;-68
2021/12/17 02:12:17;;;;;;;12.47;7.10;;;3.70;82.50;;;;;;4993298;28;20026;-68
2021/12/17 02:32:52;;;;;;;15.47;8.80;;;3.20;85.60;;;;;;4992537;28;20073;-68
2021/12/17 02:35:33;;;;;;;13.10;8.83;;;3.20;85.70;;;;;;4992857;28;20144;-68
2021/12/17 02:38:00;;;;;;;13.73;8.63;;;3.30;85.30;;;;;;4976962;28;20026;-68
2021/12/17 02:45:46;;;;;;;14.63;9.37;;;3.50;84.00;;;;;;4996722;28;20034;-68
2021/12/17 02:48:17;;;;;;;14.87;9.10;;;3.40;84.50;;;;;;4996516;28;20097;-68
2021/12/17 02:50:57;;;;;;;9.73;7.03;;;3.40;84.60;;;;;;4996235;28;20037;-68
2021/12/17 02:53:25;;;;;;;8.73;5.70;;;3.40;84.70;;;;;;4978813;28;20050;-69
2021/12/17 02:56:01;;;;;;;7.73;5.27;;;3.40;84.80;;;;;;4996539;28;20023;-68
2021/12/17 02:58:29;;;;;;;10.20;6.93;;;3.50;84.90;;;;;;4996402;28;20049;-68
2021/12/17 03:00:57;;;;;;;8.97;6.77;;;3.60;84.30;;;;;;4996083;28;20092;-68
2021/12/17 03:03:25;;;;;;;9.90;6.73;;;3.60;83.40;;;;;;4978931;28;20030;-68
2021/12/17 03:05:51;;;;;;;11.97;6.80;;;3.60;83.30;;;;;;4996337;28;20026;-68
2021/12/17 03:08:18;;;;;;;13.07;7.13;;;3.70;83.20;;;;;;4996021;28;20542;-69
2021/12/17 03:10:47;;;;;;;12.60;8.03;;;3.70;83.00;;;;;;4996338;28;20101;-68
2021/12/17 03:13:13;;;;;;;14.00;9.27;;;3.70;82.10;;;;;;4996073;28;20152;-69
2021/12/17 03:15:53;;;;;;;18.13;9.43;;;3.70;81.20;;;;;;4996052;28;20053;-68
2021/12/17 03:23:40;;;;;;;15.03;9.30;;;3.30;81.00;;;;;;4996106;28;20108;-68
2021/12/17 03:26:12;;;;;;;14.87;9.47;;;3.30;81.80;;;;;;4995789;28;20030;-68
2021/12/17 03:28:39;;;;;;;15.03;9.80;;;3.30;81.40;;;;;;4995956;28;20026;-69
2021/12/17 03:31:06;;;;;;;15.03;9.50;;;3.40;80.90;;;;;;4995844;28;20761;-67
2021/12/17 03:33:33;;;;;;;15.77;8.70;;;3.20;81.90;;;;;;4995556;28;20054;-68
2021/12/17 03:35:59;;;;;;;16.40;8.13;;;3.10;82.40;;;;;;4995678;28;20085;-68
2021/12/17 03:38:25;;;;;;;12.87;7.57;;;3.20;82.50;;;;;;4978263;28;20416;-69
2021/12/17 03:41:08;;;;;;;12.53;7.93;;;3.30;82.60;;;;;;4995797;28;20065;-68
2021/12/17 03:43:34;;;;;;;15.07;8.82;;;3.30;81.40;;;;;;4995569;28;20041;-67
2021/12/17 03:46:00;;;;;;;13.37;8.00;;;3.10;81.90;;;;;;4995581;28;20026;-68
2021/12/17 03:48:29;;;;;;;15.57;7.30;;;3.00;82.10;;;;;;4995712;28;20058;-66
2021/12/17 03:50:55;;;;;;;9.97;6.60;;;2.90;83.10;;;;;;4977221;28;20495;-67
2021/12/17 03:53:21;;;;;;;11.00;6.60;;;2.70;84.80;;;;;;4995216;28;20085;-67
2021/12/17 03:55:46;;;;;;;11.27;7.07;;;2.90;84.50;;;;;;4995290;28;20023;-67
2021/12/17 03:58:12;;;;;;;10.20;6.40;;;2.90;83.60;;;;;;4995155;28;20026;-67
2021/12/17 04:00:38;;;;;;;11.50;6.23;;;2.90;84.40;;;;;;4995421;28;20022;-67
2021/12/17 04:03:04;;;;;;;12.63;6.73;;;2.90;84.40;;;;;;4995299;28;20026;-67
2021/12/17 04:05:29;;;;;;;11.67;6.90;;;3.00;83.90;;;;;;4995131;28;20018;-67
2021/12/17 04:07:55;;;;;;;11.40;7.27;;;3.00;83.70;;;;;;4994821;28;20026;-67
2021/12/17 04:10:23;;;;;;;11.50;6.83;;;3.10;83.30;;;;;;4995286;28;20026;-67
2021/12/17 04:13:00;;;;;;;10.70;6.80;;;3.10;83.10;;;;;;4994962;28;20038;-67
2021/12/17 04:15:36;;;;;;;13.30;7.63;;;3.20;82.70;;;;;;4995447;28;20035;-67
2021/12/17 04:18:07;;;;;;;10.83;7.47;;;3.20;82.30;;;;;;4995004;28;20033;-67
2021/12/17 04:20:33;;;;;;;12.80;7.43;;;3.10;82.80;;;;;;4994979;28;20030;-67
2021/12/17 04:22:59;;;;;;;11.20;7.30;;;2.90;83.60;;;;;;4994654;28;20027;-67
2021/12/17 04:25:25;;;;;;;16.20;8.00;;;2.90;83.90;;;;;;4994910;28;20026;-67
2021/12/17 04:27:51;;;;;;;12.63;7.40;;;2.80;84.20;;;;;;4994680;28;20500;-67
2021/12/17 04:30:17;;;;;;;11.07;7.40;;;2.60;84.90;;;;;;4994700;28;20098;-67
2021/12/17 04:32:43;;;;;;;12.67;7.37;;;2.50;85.50;;;;;;4994489;28;20105;-67
2021/12/17 04:35:08;;;;;;;15.60;6.37;;;2.40;86.60;;;;;;4994832;28;20106;-67
2021/12/17 04:37:35;;;;;;;10.50;6.63;;;2.40;87.60;;;;;;4994239;28;20026;-67
2021/12/17 04:40:00;;;;;;;8.63;5.90;;;2.40;88.00;;;;;;4994426;28;20022;-67
2021/12/17 04:44:56;;;;;;;9.00;4.73;;;2.40;88.90;;;;;;4995190;28;20034;-67
2021/12/17 04:58:19;;;;;;;9.60;5.70;;;2.90;84.90;;;;;;4994656;28;20161;-67
2021/12/17 05:00:44;;;;;;;10.40;6.10;;;2.90;84.80;;;;;;4993773;28;20069;-67
2021/12/17 05:03:10;;;;;;;11.47;6.80;;;3.00;84.40;;;;;;4993835;28;20031;-67
2021/12/17 05:05:36;;;;;;;10.33;6.03;;;3.10;83.50;;;;;;4994133;28;20367;-67
2021/12/17 05:08:10;;;;;;;9.73;6.37;;;3.10;82.90;;;;;;4993944;28;20033;-67
2021/12/17 05:21:25;;;;;;;15.63;8.77;;;2.90;82.30;;;;;;4993897;28;20037;-70
2021/12/17 05:23:51;;;;;;;14.07;8.90;;;2.90;81.80;;;;;;4993720;28;20023;-69
2021/12/17 05:26:19;;;;;;;12.03;7.70;;;2.90;82.00;;;;;;4993881;28;20034;-69
2021/12/17 05:28:46;;;;;;;12.60;7.67;;;2.90;81.90;;;;;;4993910;28;20031;-67
2021/12/17 05:31:14;;;;;;;12.67;8.13;;;2.90;81.30;;;;;;4993888;28;20061;-67
2021/12/17 05:33:40;;;;;;;11.40;7.53;;;2.90;81.40;;;;;;4993301;28;20054;-69
2021/12/17 05:36:06;;;;;;;11.73;7.37;;;2.90;81.70;;;;;;4993643;28;20030;-69
2021/12/17 05:38:33;;;;;;;12.80;7.83;;;2.90;81.30;;;;;;4993523;28;20499;-69
2021/12/17 05:40:59;;;;;;;14.60;7.83;;;2.90;80.80;;;;;;4993771;28;20026;-69
2021/12/17 05:43:25;;;;;;;12.60;7.90;;;2.70;81.30;;;;;;4993779;28;20037;-67
2021/12/17 05:48:24;;;;;;;17.65;8.88;;;2.50;83.00;;;;;;4993707;28;20487;-69
2021/12/17 05:50:55;;;;;;;17.97;10.50;;;2.50;83.00;;;;;;4993460;28;20049;-69
2021/12/17 05:53:22;;;;;;;16.30;8.87;;;2.50;82.80;;;;;;4993407;28;20035;-69
2021/12/17 05:55:48;;;;;;;18.87;9.17;;;2.60;82.40;;;;;;4993437;28;20023;-67
2021/12/17 05:58:14;;;;;;;16.17;9.50;;;2.60;81.90;;;;;;4993559;28;20027;-67
2021/12/17 06:00:41;;;;;;;17.47;9.70;;;2.60;82.10;;;;;;4993405;28;20603;-67
2021/12/17 06:03:07;;;;;;;17.27;10.03;;;2.70;81.90;;;;;;4993197;28;20023;-67
2021/12/17 06:05:34;;;;;;;14.43;9.87;;;2.60;82.10;;;;;;4993414;28;20476;-68
2021/12/17 06:07:59;;;;;;;15.07;8.63;;;2.50;82.40;;;;;;4993258;28;20068;-66
2021/12/17 06:10:25;;;;;;;13.77;8.63;;;2.50;82.80;;;;;;4993237;28;20501;-67
2021/12/17 06:12:51;;;;;;;14.50;8.77;;;2.50;83.00;;;;;;4994282;28;20041;-67
2021/12/17 06:15:19;;;;;;;15.83;7.97;;;2.60;82.90;;;;;;4980369;28;20023;-66
2021/12/17 06:17:45;;;;;;;13.00;9.10;;;2.50;83.00;;;;;;4997295;28;20034;-67
2021/12/17 06:20:13;;;;;;;16.43;9.87;;;2.40;83.40;;;;;;4997353;28;20034;-68
2021/12/17 06:22:39;;;;;;;19.60;9.53;;;2.40;83.00;;;;;;4997231;28;20030;-67
2021/12/17 06:25:07;;;;;;;17.00;10.47;;;2.40;82.60;;;;;;4979584;28;20109;-67
2021/12/17 06:27:32;;;;;;;14.03;8.87;;;2.40;82.90;;;;;;4997076;28;20037;-68
2021/12/17 06:29:58;;;;;;;19.40;9.47;;;2.30;83.10;;;;;;4996919;28;20026;-67
2021/12/17 06:32:24;;;;;;;18.77;9.63;;;2.20;83.60;;;;;;4996483;28;20062;-69
2021/12/17 06:34:50;;;;;;;17.33;9.50;;;2.10;84.30;;;;;;4996524;28;20038;-68
2021/12/17 06:37:17;;;;;;;20.57;9.87;;;2.20;83.20;;;;;;4995568;28;20479;-68
2021/12/17 06:39:44;;;;;;;17.13;10.03;;;2.30;83.00;;;;;;4979005;28;20023;-69
2021/12/17 06:42:11;;;;;;;15.20;9.47;;;2.30;83.10;;;;;;4995232;28;20105;-68
2021/12/17 06:44:38;;;;;;;20.17;10.43;;;2.30;82.90;;;;;;4994942;28;20050;-68
2021/12/17 06:58:13;;;;;;;16.83;10.00;;;2.10;85.90;;;;;;4994028;28;20026;-67
2021/12/17 07:34:04;;;;;;;23.37;12.50;;;2.60;86.60;;;;;;4994172;28;20050;-68
2021/12/17 07:39:14;;;;;;;18.60;11.53;;;2.60;88.40;;;;;;4996178;28;20045;-70
2021/12/17 07:41:42;;;;;;;22.40;10.87;;;2.80;87.40;;;;;;4995467;28;20430;-68
2021/12/17 07:44:07;;;;;;;16.37;10.73;;;2.90;86.70;;;;;;4995342;28;20037;-68
2021/12/17 07:46:33;;;;;;;20.80;9.13;;;3.00;87.00;;;;;;4995609;28;20499;-68
2021/12/17 07:48:59;;;;;;;14.73;6.93;;;3.10;86.60;;;;;;4995256;28;20057;-70
2021/12/17 07:51:25;;;;;;;9.97;5.57;;;3.20;86.90;;;;;;4995349;28;20058;-68
2021/12/17 07:53:52;;;;;;;5.13;3.77;;;3.30;87.10;;;;;;4995521;28;20105;-69
2021/12/17 07:56:22;;;;;;;15.87;9.27;;;3.50;86.30;;;;;;4995437;28;20099;-68
2021/12/17 07:58:47;;;;;;;20.33;11.10;;;3.70;85.50;;;;;;4995127;28;20022;-69
2021/12/17 08:01:13;;;;;;;26.67;11.80;;;3.80;84.60;;;;;;4995427;28;20080;-68
2021/12/17 08:03:40;;;;;;;26.77;11.90;;;3.90;84.50;;;;;;4995387;28;20026;-68
2021/12/17 08:06:07;;;;;;;21.87;12.03;;;4.00;84.50;;;;;;4994273;28;20022;-68
2021/12/17 08:08:33;;;;;;;25.30;9.97;;;4.10;83.70;;;;;;4992597;28;20518;-68
2021/12/17 08:10:59;;;;;;;15.60;9.77;;;4.20;83.90;;;;;;4992461;28;20033;-68
2021/12/17 08:13:28;;;;;;;18.13;8.80;;;4.30;83.50;;;;;;4994514;28;20034;-68
2021/12/17 08:31:18;;;;;;;19.53;11.70;;;4.90;81.80;;;;;;4994691;28;20057;-68
2021/12/17 08:33:44;;;;;;;18.60;11.23;;;5.00;82.00;;;;;;4994276;28;20529;-69
2021/12/17 08:36:11;;;;;;;18.93;11.33;;;5.00;81.40;;;;;;4993744;28;20038;-71
2021/12/17 08:38:37;;;;;;;20.27;11.30;;;5.10;80.60;;;;;;4994453;28;20114;-68
2021/12/17 08:41:03;;;;;;;24.10;14.00;;;5.20;80.40;;;;;;4994143;28;20152;-70
2021/12/17 08:43:29;;;;;;;29.00;14.50;;;5.20;81.60;;;;;;4994010;28;20046;-69
2021/12/17 08:45:54;;;;;;;30.80;17.13;;;5.30;81.20;;;;;;4994104;28;20057;-69
2021/12/17 08:48:20;;;;;;;41.90;17.00;;;5.40;80.70;;;;;;4993990;28;20019;-69
2021/12/17 08:50:46;;;;;;;25.00;15.47;;;5.40;80.90;;;;;;4994307;28;20393;-68
2021/12/17 08:53:12;;;;;;;24.13;15.93;;;5.40;81.40;;;;;;4993773;28;20085;-69
2021/12/17 08:55:37;;;;;;;32.23;16.60;;;5.40;81.30;;;;;;4994291;28;20109;-68
2021/12/17 08:58:04;;;;;;;27.03;14.90;;;5.50;81.10;;;;;;4994350;28;20034;-68
2021/12/17 09:00:30;;;;;;;24.50;16.70;;;5.50;81.50;;;;;;4994299;28;20030;-68
2021/12/17 09:02:59;;;;;;;20.87;14.00;;;5.60;80.70;;;;;;4994313;28;20031;-68
2021/12/17 09:05:25;;;;;;;19.17;11.73;;;5.70;80.90;;;;;;4994321;28;20467;-68
2021/12/17 09:07:51;;;;;;;21.60;12.93;;;5.80;80.40;;;;;;4994274;28;20442;-69
2021/12/17 09:10:21;;;;;;;21.47;11.53;;;5.90;79.90;;;;;;4994521;28;20022;-71
2021/12/17 09:12:47;;;;;;;21.23;12.20;;;6.00;79.40;;;;;;4993935;28;20041;-70
2021/12/17 09:15:13;;;;;;;25.33;13.53;;;6.10;79.80;;;;;;4994206;28;20046;-68
2021/12/17 09:17:39;;;;;;;23.33;12.40;;;6.20;79.00;;;;;;4994027;28;20598;-70
2021/12/17 09:20:06;;;;;;;18.47;12.17;;;6.30;79.20;;;;;;4994457;28;20048;-67
2021/12/17 09:22:33;;;;;;;24.07;11.87;;;6.40;78.70;;;;;;4994000;28;20034;-68
2021/12/17 09:24:59;;;;;;;22.90;11.53;;;6.50;78.30;;;;;;4993986;28;20026;-68
2021/12/17 09:27:24;;;;;;;15.87;10.63;;;6.60;78.40;;;;;;4993970;28;20117;-69
2021/12/17 09:29:50;;;;;;;16.37;10.80;;;6.70;77.90;;;;;;4993048;28;20022;-67
2021/12/17 09:32:16;;;;;;;17.07;10.70;;;6.80;77.90;;;;;;4992604;28;20038;-69
2021/12/17 09:34:41;;;;;;;19.83;10.33;;;6.80;77.50;;;;;;4992830;28;20387;-69
2021/12/17 09:37:07;;;;;;;14.50;9.20;;;6.90;78.30;;;;;;4992000;28;20034;-68
2021/12/17 09:39:33;;;;;;;15.13;9.87;;;7.00;77.80;;;;;;4992184;28;20041;-68
2021/12/17 09:41:59;;;;;;;13.83;9.00;;;7.00;77.30;;;;;;4992060;28;20078;-67
2021/12/17 09:44:25;;;;;;;11.57;7.40;;;7.10;77.00;;;;;;4993016;28;20101;-67
2021/12/17 09:46:51;;;;;;;11.67;7.00;;;7.20;76.80;;;;;;4993003;28;20501;-70
2021/12/17 09:49:18;;;;;;;8.27;6.07;;;7.30;76.70;;;;;;4992055;28;20105;-69
2021/12/17 09:51:47;;;;;;;15.90;6.53;;;7.40;76.90;;;;;;4993578;28;20125;-68
2021/12/17 09:54:13;;;;;;;10.47;6.80;;;7.50;76.70;;;;;;4976159;28;20034;-70
2021/12/17 09:56:38;;;;;;;9.97;5.90;;;7.60;75.90;;;;;;4992980;28;20027;-69
2021/12/17 09:59:04;;;;;;;8.13;5.80;;;7.60;75.40;;;;;;4992543;28;20045;-68
2021/12/17 10:01:30;;;;;;;9.27;5.97;;;7.70;75.00;;;;;;4993260;28;20022;-68
2021/12/17 10:04:14;;;;;;;10.80;6.33;;;7.80;74.60;;;;;;4989906;28;20393;-69
2021/12/17 10:06:39;;;;;;;8.07;5.10;;;7.90;74.20;;;;;;4990394;28;20031;-69
2021/12/17 10:09:06;;;;;;;8.33;5.30;;;7.90;74.10;;;;;;4991425;28;20033;-68
2021/12/17 10:11:31;;;;;;;11.73;6.70;;;7.90;74.60;;;;;;4992140;28;20057;-69
2021/12/17 10:14:16;;;;;;;9.33;6.17;;;8.00;74.30;;;;;;4993415;28;20054;-68
2021/12/17 10:16:41;;;;;;;15.80;7.70;;;8.10;73.30;;;;;;4993556;28;20073;-68
2021/12/17 10:19:07;;;;;;;12.53;6.90;;;8.20;73.20;;;;;;4993379;28;20422;-70
2021/12/17 10:21:38;;;;;;;9.17;5.47;;;8.20;73.10;;;;;;4993085;28;20450;-69
2021/12/17 10:24:04;;;;;;;8.33;5.37;;;8.30;73.00;;;;;;4993218;28;20026;-67
2021/12/17 10:26:41;;;;;;;10.93;5.23;;;8.40;72.80;;;;;;4992594;28;20027;-68
2021/12/17 10:29:07;;;;;;;8.77;4.53;;;8.50;72.80;;;;;;4990216;28;20041;-67
2021/12/17 10:31:37;;;;;;;9.47;4.90;;;8.60;72.60;;;;;;4990539;28;20524;-67
2021/12/17 10:34:04;;;;;;;10.83;5.70;;;8.70;72.00;;;;;;4990455;28;20054;-68
2021/12/17 10:36:43;;;;;;;8.77;5.30;;;8.80;71.50;;;;;;4993007;28;20173;-68
2021/12/17 10:39:32;;;;;;;11.30;5.70;;;8.90;71.80;;;;;;4993050;28;20030;-68
2021/12/17 10:41:58;;;;;;;11.33;6.30;;;9.00;71.60;;;;;;4993175;28;20034;-68
2021/12/17 10:44:24;;;;;;;9.77;6.50;;;9.00;71.80;;;;;;4992337;28;20026;-68
2021/12/17 10:47:30;;;;;;;11.73;6.67;;;9.10;71.30;;;;;;4991880;28;20088;-68
2021/12/17 10:49:58;;;;;;;12.43;5.57;;;9.20;71.00;;;;;;4992424;28;20092;-68
2021/12/17 10:52:39;;;;;;;15.13;5.70;;;9.30;70.80;;;;;;4992262;28;20042;-69
2021/12/17 10:55:10;;;;;;;10.53;5.43;;;9.40;70.70;;;;;;4992652;28;20114;-68
2021/12/17 10:57:36;;;;;;;10.23;6.27;;;9.40;70.60;;;;;;4992373;28;20066;-68
2021/12/17 11:00:06;;;;;;;13.40;7.33;;;9.50;70.90;;;;;;4994412;28;20057;-68
2021/12/17 11:02:33;;;;;;;14.30;7.03;;;9.50;71.10;;;;;;4996050;28;20097;-68
2021/12/17 11:05:13;;;;;;;13.80;6.50;;;9.50;70.80;;;;;;4996387;28;20022;-68
2021/12/17 11:07:43;;;;;;;17.13;6.60;;;9.50;70.60;;;;;;4995512;28;20049;-68
2021/12/17 11:10:09;;;;;;;10.77;5.80;;;9.60;70.10;;;;;;4996294;28;20101;-68
2021/12/17 11:12:41;;;;;;;9.30;6.40;;;9.60;70.20;;;;;;4996003;28;20550;-68
2021/12/17 11:15:12;;;;;;;9.88;5.63;;;9.60;70.40;;;;;;4996321;28;20105;-68
2021/12/17 11:17:40;;;;;;;8.60;5.80;;;9.70;70.30;;;;;;4996222;28;20510;-68
2021/12/17 11:20:19;;;;;;;15.93;5.97;;;9.80;71.00;;;;;;4996023;28;20023;-67
2021/12/17 11:22:47;;;;;;;14.83;5.90;;;9.80;69.80;;;;;;4996048;28;20490;-68
2021/12/17 11:25:14;;;;;;;13.20;4.97;;;9.90;69.30;;;;;;4996038;28;20023;-68
2021/12/17 11:27:40;;;;;;;12.87;5.77;;;10.00;69.40;;;;;;4995677;28;20092;-68
2021/12/17 11:30:08;;;;;;;8.90;5.33;;;10.10;70.30;;;;;;4995928;28;20478;-68
2021/12/17 11:32:35;;;;;;;14.53;5.50;;;10.20;68.70;;;;;;4995848;28;20065;-68
2021/12/17 11:35:06;;;;;;;11.77;5.97;;;10.30;68.20;;;;;;4995609;28;20069;-69
2021/12/17 11:37:32;;;;;;;16.53;6.37;;;10.40;67.00;;;;;;4995937;28;20375;-68
2021/12/17 11:40:03;;;;;;;9.57;6.13;;;10.50;67.90;;;;;;4995852;28;20046;-68
2021/12/17 11:43:01;;;;;;;14.53;6.93;;;10.60;67.80;;;;;;4995657;28;20027;-68
2021/12/17 11:45:29;;;;;;;12.93;6.50;;;10.70;67.40;;;;;;4978163;28;20026;-68
2021/12/17 11:48:14;;;;;;;13.10;6.03;;;10.80;67.20;;;;;;4995590;28;20039;-68
2021/12/17 11:50:39;;;;;;;12.37;4.87;;;10.90;66.80;;;;;;4995267;28;20042;-68
2021/12/17 11:53:24;;;;;;;6.40;3.33;;;10.90;65.90;;;;;;4995447;28;20046;-68
2021/12/17 11:55:58;;;;;;;5.90;3.47;;;11.00;64.20;;;;;;4995690;28;20021;-68
2021/12/17 11:58:45;;;;;;;4.55;2.63;;;11.10;64.10;;;;;;4995275;28;20114;-68
2021/12/17 12:01:11;;;;;;;5.50;3.45;;;11.20;63.20;;;;;;4995470;28;20026;-68
2021/12/17 12:03:36;;;;;;;9.77;3.70;;;11.20;62.90;;;;;;4995225;28;20041;-68
2021/12/17 12:06:02;;;;;;;5.53;3.47;;;11.30;62.70;;;;;;4994829;28;20054;-68
2021/12/17 12:08:34;;;;;;;7.03;3.40;;;11.40;61.10;;;;;;4995444;28;20467;-72
2021/12/17 12:11:11;;;;;;;9.68;4.22;;;11.40;59.40;;;;;;4994897;28;20487;-69
2021/12/17 12:13:49;;;;;;;8.60;4.93;;;11.50;60.30;;;;;;4995056;28;20117;-69
2021/12/17 12:16:23;;;;;;;7.32;4.18;;;11.50;59.70;;;;;;4995513;28;20098;-72
2021/12/17 12:19:05;;;;;;;4.90;3.20;;;11.60;59.00;;;;;;4995207;28;20049;-68
2021/12/17 12:21:39;;;;;;;4.22;2.50;;;11.70;59.90;;;;;;4995351;28;20100;-69
2021/12/17 12:24:09;;;;;;;6.40;4.32;;;11.70;58.90;;;;;;4992456;28;20038;-77
2021/12/17 12:26:53;;;;;;;4.88;3.60;;;11.80;59.60;;;;;;4991847;28;20434;-68
2021/12/17 12:29:21;;;;;;;5.03;3.20;;;11.80;59.00;;;;;;4992782;28;20113;-75
2021/12/17 12:31:53;;;;;;;6.88;2.00;;;11.90;59.40;;;;;;4994235;28;20494;-70
2021/12/17 12:34:27;;;;;;;2.38;1.67;;;11.90;56.30;;;;;;4994953;28;20137;-69
2021/12/17 12:37:08;;;;;;;3.08;1.88;;;11.90;56.70;;;;;;4995018;28;20097;-70
2021/12/17 12:39:43;;;;;;;1.83;1.33;;;11.90;57.00;;;;;;4976573;28;20349;-72
2021/12/17 12:42:20;;;;;;;2.47;1.80;;;11.90;56.90;;;;;;4977055;28;20390;-69
2021/12/17 12:44:46;;;;;;;4.35;1.55;;;11.90;56.30;;;;;;4994385;28;20031;-70
2021/12/17 12:47:35;;;;;;;2.33;1.50;;;11.90;56.70;;;;;;4994185;28;20030;-69
2021/12/17 12:50:10;;;;;;;6.95;1.60;;;12.00;57.20;;;;;;4994221;28;20026;-69
2021/12/17 12:52:44;;;;;;;2.92;1.73;;;11.90;56.30;;;;;;4976387;28;20132;-69
2021/12/17 12:55:24;;;;;;;3.45;1.85;;;11.90;56.40;;;;;;4994462;28;20395;-73
2021/12/17 12:58:04;;;;;;;7.07;2.08;;;11.90;56.30;;;;;;4994331;28;20030;-68
2021/12/17 13:00:43;;;;;;;5.65;1.90;;;11.90;56.20;;;;;;4994023;28;20030;-71
2021/12/17 13:03:15;;;;;;;3.20;2.00;;;11.90;56.10;;;;;;4993867;28;20089;-70
2021/12/17 13:05:43;;;;;;;3.00;2.03;;;11.90;56.20;;;;;;4993991;28;20387;-68
2021/12/17 13:08:12;;;;;;;2.67;1.70;;;11.90;56.20;;;;;;4993982;28;20042;-69
2021/12/17 13:10:55;;;;;;;2.75;1.70;;;11.90;56.20;;;;;;4994086;28;20467;-70
2021/12/17 13:22:24;;;;;;;3.92;1.77;;;11.80;56.40;;;;;;4994355;28;20101;-67
2021/12/17 13:24:20;;;;;;;3.67;1.90;;;11.80;56.70;;;;;;4982167;28;20027;-72
2021/12/17 13:26:47;;;;;;;5.07;1.80;;;11.80;57.40;;;;;;4993541;28;20037;-68
2021/12/17 13:29:15;;;;;;;3.00;1.83;;;11.80;56.90;;;;;;4976645;28;20430;-71
2021/12/17 13:32:01;;;;;;;2.85;1.75;;;11.80;56.50;;;;;;4993573;28;20026;-70
2021/12/17 13:34:44;;;;;;;7.00;3.35;;;11.70;56.30;;;;;;4993692;28;20046;-70
2021/12/17 13:37:21;;;;;;;10.45;5.07;;;11.70;56.50;;;;;;4993809;28;20018;-74
2021/12/17 13:40:04;;;;;;;5.53;3.67;;;11.70;57.40;;;;;;4993483;28;20356;-69
2021/12/17 13:42:38;;;;;;;5.30;3.13;;;11.60;58.00;;;;;;4993563;28;20034;-69
2021/12/17 13:45:14;;;;;;;5.03;2.83;;;11.60;57.90;;;;;;4993420;28;20073;-67
2021/12/17 13:47:48;;;;;;;3.70;2.20;;;11.60;58.10;;;;;;4993818;28;20034;-68
2021/12/17 13:50:30;;;;;;;4.07;2.60;;;11.50;58.10;;;;;;4993612;28;20018;-68
2021/12/17 13:52:59;;;;;;;3.53;2.53;;;11.50;57.10;;;;;;4993394;28;20038;-68
2021/12/17 13:55:28;;;;;;;5.38;2.25;;;11.40;56.90;;;;;;4992257;28;20360;-69
2021/12/17 13:57:54;;;;;;;8.20;2.30;;;11.40;56.90;;;;;;4990917;28;20037;-68
2021/12/17 14:00:24;;;;;;;4.72;2.50;;;11.40;57.50;;;;;;4991509;28;20030;-69
2021/12/17 14:02:54;;;;;;;5.63;2.75;;;11.40;57.90;;;;;;4993673;28;20022;-68
2021/12/17 14:05:40;;;;;;;6.40;3.17;;;11.40;58.50;;;;;;4993432;28;20029;-68
2021/12/17 14:08:09;;;;;;;5.03;2.30;;;11.40;58.20;;;;;;4993323;28;20015;-73
2021/12/17 14:10:36;;;;;;;3.72;2.30;;;11.30;57.10;;;;;;4993008;28;20030;-68
2021/12/17 14:13:04;;;;;;;7.65;3.40;;;11.30;57.30;;;;;;4990613;28;20041;-68
2021/12/17 14:15:35;;;;;;;7.43;3.58;;;11.30;58.10;;;;;;4993554;28;20029;-68
2021/12/17 14:18:06;;;;;;;9.20;4.25;;;11.30;58.30;;;;;;4993521;28;20034;-68
2021/12/17 14:20:56;;;;;;;6.70;4.10;;;11.30;58.90;;;;;;4993490;28;20023;-69
2021/12/17 14:23:26;;;;;;;10.95;4.28;;;11.30;59.70;;;;;;4993002;28;20089;-69
2021/12/17 14:25:54;;;;;;;10.40;4.53;;;11.20;60.20;;;;;;4992947;28;20094;-70
2021/12/17 14:28:21;;;;;;;9.90;4.82;;;11.20;60.70;;;;;;4993197;28;20080;-68
2021/12/17 14:31:16;;;;;;;13.90;5.15;;;11.20;60.80;;;;;;4993450;28;20046;-71
2021/12/17 14:33:47;;;;;;;13.45;5.97;;;11.10;61.60;;;;;;4993976;28;20061;-68
2021/12/17 14:36:14;;;;;;;9.65;5.57;;;11.10;61.10;;;;;;4996910;28;20050;-68
2021/12/17 14:38:47;;;;;;;15.95;5.10;;;11.10;61.20;;;;;;4997174;28;20479;-72
2021/12/17 14:41:32;;;;;;;;;;;11.10;61.50;;;;;;4997523;28;20175;-69
2021/12/17 14:44:11;;;;;;;9.45;5.47;;;11.00;61.70;;;;;;4996960;28;20001;-68
2021/12/17 14:46:54;;;;;;;13.73;6.13;;;11.00;62.10;;;;;;4997184;28;20027;-70
2021/12/17 14:57:16;;;;;;;10.23;5.43;;;10.90;62.50;;;;;;4979395;28;20018;-71
2021/12/17 15:05:48;;;;;;;10.57;4.85;;;10.40;65.40;;;;;;4997048;28;20034;-68
2021/12/17 15:08:14;;;;;;;16.03;4.20;;;10.40;65.40;;;;;;4996800;28;20032;-72
2021/12/17 15:10:40;;;;;;;15.80;6.40;;;10.30;65.80;;;;;;4996566;28;20081;-70
2021/12/17 15:13:07;;;;;;;11.63;5.53;;;10.20;65.90;;;;;;4996379;28;20487;-69
2021/12/17 15:15:35;;;;;;;11.30;5.90;;;10.10;66.40;;;;;;4978828;28;20483;-71
2021/12/17 15:18:04;;;;;;;19.67;6.80;;;10.00;67.80;;;;;;4996522;28;20518;-69
2021/12/17 15:20:32;;;;;;;19.47;6.40;;;9.90;67.60;;;;;;4996475;28;20036;-68
2021/12/17 15:23:00;;;;;;;21.47;9.27;;;9.80;68.20;;;;;;4996348;28;20085;-69
2021/12/17 15:25:27;;;;;;;20.30;11.40;;;9.70;68.20;;;;;;4996203;28;20061;-70
2021/12/17 15:27:53;;;;;;;16.87;9.00;;;9.60;67.90;;;;;;4996193;28;20030;-68
2021/12/17 15:30:26;;;;;;;15.77;8.40;;;9.60;67.80;;;;;;4996232;28;20027;-69
2021/12/17 15:32:52;;;;;;;14.07;6.90;;;9.50;68.00;;;;;;4996205;28;20121;-68
2021/12/17 15:35:20;;;;;;;10.53;6.23;;;9.40;68.20;;;;;;4996128;28;20042;-68
2021/12/17 15:37:47;;;;;;;13.27;5.93;;;9.40;68.00;;;;;;4995965;28;20036;-69
2021/12/17 15:40:13;;;;;;;12.33;5.80;;;9.30;68.10;;;;;;4996007;28;20026;-69
2021/12/17 15:42:39;;;;;;;9.40;5.27;;;9.10;67.80;;;;;;4995210;28;20084;-67
2021/12/17 15:45:07;;;;;;;8.93;5.43;;;9.10;68.30;;;;;;4992934;28;20548;-69
2021/12/17 15:47:33;;;;;;;7.30;4.97;;;9.10;68.50;;;;;;4992597;28;20164;-76
2021/12/17 15:49:59;;;;;;;9.13;5.10;;;9.10;68.30;;;;;;4997031;28;20037;-70
2021/12/17 15:52:25;;;;;;;7.93;4.77;;;9.00;68.10;;;;;;4993725;28;20030;-69
2021/12/17 15:54:51;;;;;;;8.97;5.33;;;8.90;68.20;;;;;;5000608;28;20029;-70
2021/12/17 15:57:17;;;;;;;13.27;5.20;;;8.90;68.30;;;;;;4998555;28;20034;-67
2021/12/17 15:59:45;;;;;;;10.10;5.90;;;8.90;68.30;;;;;;5008017;28;20052;-74
2021/12/17 16:02:12;;;;;;;11.03;5.30;;;8.80;68.80;;;;;;4994350;28;20116;-68
2021/12/17 16:04:41;;;;;;;12.10;5.77;;;8.70;68.50;;;;;;4995056;28;20026;-69
2021/12/17 16:07:07;;;;;;;20.77;7.33;;;8.60;69.10;;;;;;5003409;28;20023;-72
2021/12/17 16:22:50;;;;;;;56.47;27.53;;;8.20;71.60;;;;;;5011127;28;20037;-71
2021/12/17 16:25:16;;;;;;;39.17;21.40;;;8.10;71.70;;;;;;5013969;28;20022;-69
2021/12/17 16:27:42;;;;;;;41.73;23.13;;;7.90;72.00;;;;;;4997436;28;20026;-70